createdAt,value
2023-05-06T00:01:05.195Z,101746.34
2023-05-06T00:03:34.528Z,101749.06
2023-05-06T00:06:07.018Z,101736.31
2023-05-06T00:08:36.738Z,101656.28
2023-05-06T00:11:04.988Z,101745.06
2023-05-06T00:13:33.179Z,101736.19
2023-05-06T00:16:01.409Z,101715.84
2023-05-06T00:18:29.665Z,101697.56
2023-05-06T00:20:59.899Z,101723.38
2023-05-06T00:23:28.265Z,101736.19
2023-05-06T00:25:57.780Z,101733.81
2023-05-06T00:28:25.933Z,101738.84
2023-05-06T00:30:54.118Z,101706.31
2023-05-06T00:33:22.351Z,101740.00
2023-05-06T00:35:56.559Z,101733.81
2023-05-06T00:38:29.988Z,101731.41
2023-05-06T00:40:59.545Z,101692.22
2023-05-06T00:43:33.814Z,101725.25
2023-05-06T00:46:02.436Z,101730.75
2023-05-06T00:48:30.993Z,101725.97
2023-05-06T00:50:59.504Z,101726.66
2023-05-06T00:53:27.814Z,101725.28
2023-05-06T00:55:57.035Z,101619.91
2023-05-06T00:58:26.815Z,101719.38
2023-05-06T01:00:56.344Z,101683.53
2023-05-06T01:03:26.989Z,101718.38
2023-05-06T01:06:09.937Z,101716.41
2023-05-06T01:08:48.105Z,101656.88
2023-05-06T01:11:25.597Z,101719.09
2023-05-06T01:14:03.772Z,101690.53
2023-05-06T01:16:34.978Z,101718.69
2023-05-06T01:19:10.108Z,101712.81
2023-05-06T01:21:47.204Z,101716.72
2023-05-06T01:24:16.793Z,101719.97
2023-05-06T01:26:45.149Z,101722.22
2023-05-06T01:29:16.105Z,101722.34
2023-05-06T01:31:49.336Z,101688.22
2023-05-06T01:34:27.558Z,101692.97
2023-05-06T01:37:07.973Z,101730.09
2023-05-06T01:39:39.502Z,101726.41
2023-05-06T01:42:11.609Z,101697.06
2023-05-06T01:44:41.089Z,101711.69
2023-05-06T01:47:11.389Z,101728.69
2023-05-06T01:49:40.995Z,101732.78
2023-05-06T01:52:09.799Z,101731.34
2023-05-06T01:54:39.443Z,101735.03
2023-05-06T01:57:07.690Z,101672.63
2023-05-06T01:59:36.074Z,101737.41
2023-05-06T02:02:04.281Z,101741.06
2023-05-06T02:04:33.055Z,101739.94
2023-05-06T02:07:01.541Z,101736.16
2023-05-06T02:09:29.777Z,101742.63
2023-05-06T02:12:03.911Z,101726.84
2023-05-06T02:14:32.422Z,101740.50
2023-05-06T02:17:06.897Z,101736.97
2023-05-06T02:19:40.957Z,101753.97
2023-05-06T02:22:11.300Z,101756.78
2023-05-06T02:24:39.604Z,101755.25
2023-05-06T02:27:09.483Z,101742.59
2023-05-06T02:29:37.573Z,101692.81
2023-05-06T02:32:06.298Z,101719.69
2023-05-06T02:34:34.663Z,101745.13
2023-05-06T02:37:03.263Z,101746.50
2023-05-06T02:39:31.504Z,101745.81
2023-05-06T02:41:59.708Z,101725.19
2023-05-06T02:44:32.392Z,101742.75
2023-05-06T02:47:02.768Z,101737.81
2023-05-06T02:49:30.914Z,101744.97
2023-05-06T02:51:59.106Z,101736.97
2023-05-06T02:54:27.402Z,101743.59
2023-05-06T02:56:55.957Z,101734.44
2023-05-06T02:59:24.512Z,101663.91
2023-05-06T03:01:54.038Z,101736.97
2023-05-06T03:04:22.433Z,101716.72
2023-05-06T03:06:50.746Z,101738.66
2023-05-06T03:09:19.142Z,101736.69
2023-05-06T03:11:47.753Z,101699.25
2023-05-06T03:14:16.242Z,101728.50
2023-05-06T03:16:44.615Z,101740.72
2023-05-06T03:19:14.242Z,101734.72
2023-05-06T03:21:44.659Z,101735.81
2023-05-06T03:24:12.874Z,101732.16
2023-05-06T03:26:41.246Z,101736.38
2023-05-06T03:29:11.621Z,101735.41
2023-05-06T03:31:40.227Z,101733.13
2023-05-06T03:34:08.537Z,101703.16
2023-05-06T03:36:38.775Z,101738.47
2023-05-06T03:39:07.289Z,101720.06
2023-05-06T03:41:37.798Z,101708.81
2023-05-06T03:44:06.678Z,101745.91
2023-05-06T03:46:34.994Z,101724.25
2023-05-06T03:49:05.959Z,101748.94
2023-05-06T03:51:34.396Z,101729.69
2023-05-06T03:54:04.732Z,101733.66
2023-05-06T03:56:36.147Z,101744.72
2023-05-06T03:59:05.297Z,101741.66
2023-05-06T04:01:33.631Z,101694.31
2023-05-06T04:04:02.147Z,101736.75
2023-05-06T04:06:31.147Z,101751.50
2023-05-06T04:08:59.540Z,101749.28
2023-05-06T04:11:30.009Z,101754.38
2023-05-06T04:13:59.758Z,101740.47
2023-05-06T04:16:28.057Z,101756.34
2023-05-06T04:19:02.534Z,101750.88
2023-05-06T04:21:34.912Z,101753.41
2023-05-06T04:24:08.492Z,101755.69
2023-05-06T04:26:41.420Z,101715.06
2023-05-06T04:29:10.638Z,101746.81
2023-05-06T04:31:47.355Z,101755.53
2023-05-06T04:34:16.990Z,101755.25
2023-05-06T04:36:49.522Z,101749.06
2023-05-06T04:39:24.960Z,101756.34
2023-05-06T04:41:54.542Z,101744.28
2023-05-06T04:44:29.843Z,101755.81
2023-05-06T04:46:58.881Z,101754.50
2023-05-06T04:49:27.364Z,101765.75
2023-05-06T04:51:57.031Z,101767.88
2023-05-06T04:54:28.035Z,101763.78
2023-05-06T04:56:57.725Z,101760.38
2023-05-06T04:59:26.206Z,101718.78
2023-05-06T05:01:56.181Z,101757.81
2023-05-06T05:04:24.505Z,101764.81
2023-05-06T05:06:52.927Z,101769.16
2023-05-06T05:09:24.009Z,101774.25
2023-05-06T05:11:52.309Z,101765.94
2023-05-06T05:14:23.497Z,101780.03
2023-05-06T05:16:51.830Z,101763.44
2023-05-06T05:19:26.140Z,101782.69
2023-05-06T05:21:56.905Z,101778.31
2023-05-06T05:24:26.971Z,101777.50
2023-05-06T05:26:55.269Z,101784.88
2023-05-06T05:29:24.954Z,101784.78
2023-05-06T05:31:57.603Z,101780.31
2023-05-06T05:34:27.587Z,101768.03
2023-05-06T05:36:57.584Z,101796.84
2023-05-06T05:39:30.960Z,101774.06
2023-05-06T05:41:59.568Z,101785.91
2023-05-06T05:44:31.718Z,101778.31
2023-05-06T05:47:00.009Z,101758.78
2023-05-06T05:49:29.756Z,101792.38
2023-05-06T05:51:58.175Z,101785.91
2023-05-06T05:54:27.410Z,101777.72
2023-05-06T05:56:58.063Z,101801.03
2023-05-06T05:59:27.144Z,101765.84
2023-05-06T06:02:01.579Z,101789.41
2023-05-06T06:04:30.380Z,101788.06
2023-05-06T06:07:01.796Z,101751.03
2023-05-06T06:09:31.547Z,101788.38
2023-05-06T06:12:05.930Z,101752.66
2023-05-06T06:14:36.688Z,101786.09
2023-05-06T06:17:07.416Z,101788.25
2023-05-06T06:19:36.476Z,101789.72
2023-05-06T06:22:04.756Z,101796.47
2023-05-06T06:24:35.414Z,101796.66
2023-05-06T06:27:06.253Z,101787.91
2023-05-06T06:29:34.462Z,101772.84
2023-05-06T06:32:04.457Z,101804.06
2023-05-06T06:34:34.065Z,101782.22
2023-05-06T06:37:08.006Z,101797.00
2023-05-06T06:39:36.440Z,101798.09
2023-05-06T06:42:06.878Z,101801.81
2023-05-06T06:44:43.706Z,101804.53
2023-05-06T06:47:11.897Z,101816.13
2023-05-06T06:49:41.424Z,101814.78
2023-05-06T06:52:10.534Z,101813.78
2023-05-06T06:54:39.515Z,101812.13
2023-05-06T06:57:08.840Z,101819.16
2023-05-06T06:59:39.765Z,101815.16
2023-05-06T07:02:10.864Z,101816.16
2023-05-06T07:04:39.100Z,101818.34
2023-05-06T07:07:10.837Z,101823.06
2023-05-06T07:09:40.284Z,101817.06
2023-05-06T07:12:11.235Z,101823.63
2023-05-06T07:14:42.608Z,101824.97
2023-05-06T07:17:11.997Z,101816.03
2023-05-06T07:19:40.419Z,101801.78
2023-05-06T07:22:13.171Z,101785.47
2023-05-06T07:24:41.556Z,101815.38
2023-05-06T07:27:12.851Z,101792.84
2023-05-06T07:29:41.233Z,101822.75
2023-05-06T07:32:09.926Z,101830.22
2023-05-06T07:34:38.156Z,101823.47
2023-05-06T07:37:07.964Z,101822.34
2023-05-06T07:39:40.504Z,101837.16
2023-05-06T07:42:12.949Z,101836.28
2023-05-06T07:44:43.979Z,101832.59
2023-05-06T07:47:12.319Z,101817.19
2023-05-06T07:49:40.989Z,101801.28
2023-05-06T07:52:11.905Z,101835.22
2023-05-06T07:54:44.098Z,101836.13
2023-05-06T07:57:12.562Z,101783.13
2023-05-06T07:59:40.891Z,101775.63
2023-05-06T08:02:11.451Z,101801.28
2023-05-06T08:04:39.891Z,101785.09
2023-05-06T08:07:08.896Z,101748.06
2023-05-06T08:09:37.322Z,101836.78
2023-05-06T08:12:08.538Z,101837.03
2023-05-06T08:14:36.984Z,101833.22
2023-05-06T08:17:05.856Z,101809.84
2023-05-06T08:19:34.104Z,101836.13
2023-05-06T08:22:02.576Z,101667.59
2023-05-06T08:24:30.976Z,101803.53
2023-05-06T08:26:59.334Z,101837.81
2023-05-06T08:29:28.905Z,101798.94
2023-05-06T08:31:57.328Z,101809.59
2023-05-06T08:34:25.661Z,101733.16
2023-05-06T08:36:53.963Z,101817.31
2023-05-06T08:39:22.322Z,101839.09
2023-05-06T08:41:53.597Z,101840.13
2023-05-06T08:44:26.089Z,101836.38
2023-05-06T08:46:56.322Z,101833.53
2023-05-06T08:49:24.986Z,101833.41
2023-05-06T08:51:53.615Z,101807.00
2023-05-06T08:54:24.778Z,101802.56
2023-05-06T08:56:54.955Z,101708.13
2023-05-06T08:59:26.793Z,101819.22
2023-05-06T09:01:56.604Z,101794.78
2023-05-06T09:04:24.949Z,101789.59
2023-05-06T09:06:53.406Z,101806.03
2023-05-06T09:09:21.807Z,101795.00
2023-05-06T09:11:54.104Z,101802.81
2023-05-06T09:14:23.441Z,101774.28
2023-05-06T09:16:58.531Z,101810.81
2023-05-06T09:19:28.479Z,101804.66
2023-05-06T09:21:57.304Z,101784.84
2023-05-06T09:24:26.340Z,101765.56
2023-05-06T09:26:55.503Z,101785.63
2023-05-06T09:29:25.251Z,101761.50
2023-05-06T09:31:56.995Z,101776.03
2023-05-06T09:34:25.685Z,101764.69
2023-05-06T09:36:57.233Z,101738.34
2023-05-06T09:39:27.545Z,101781.50
2023-05-06T09:41:56.576Z,101789.69
2023-05-06T09:44:26.966Z,101789.38
2023-05-06T09:47:00.906Z,101787.59
2023-05-06T09:49:45.721Z,101763.69
2023-05-06T09:52:15.963Z,101782.19
2023-05-06T09:54:46.840Z,101787.72
2023-05-06T09:57:17.143Z,101772.72
2023-05-06T09:59:48.610Z,101773.34
2023-05-06T10:02:19.682Z,101776.56
2023-05-06T10:04:51.166Z,101780.50
2023-05-06T10:07:23.768Z,101782.53
2023-05-06T10:09:55.274Z,101780.03
2023-05-06T10:12:23.653Z,101732.25
2023-05-06T10:14:51.993Z,101752.63
2023-05-06T10:17:26.711Z,101766.88
2023-05-06T10:19:59.149Z,101766.66
2023-05-06T10:22:42.550Z,101777.19
2023-05-06T10:25:19.422Z,101760.22
2023-05-06T10:27:51.228Z,101707.38
2023-05-06T10:30:20.956Z,101749.97
2023-05-06T10:32:53.315Z,101765.75
2023-05-06T10:35:37.345Z,101737.94
2023-05-06T10:38:20.518Z,101769.75
2023-05-06T10:40:53.756Z,101727.63
2023-05-06T10:43:25.878Z,101730.50
2023-05-06T10:46:09.188Z,101762.63
2023-05-06T10:48:41.300Z,101756.84
2023-05-06T10:51:28.448Z,101753.03
2023-05-06T10:54:03.849Z,101741.94
2023-05-06T10:56:34.553Z,101725.28
2023-05-06T10:59:07.944Z,101748.22
2023-05-06T11:01:39.356Z,101742.91
2023-05-06T11:04:11.267Z,101744.72
2023-05-06T11:06:42.639Z,101742.41
2023-05-06T11:09:19.107Z,101734.34
2023-05-06T11:12:07.018Z,101738.16
2023-05-06T11:14:40.198Z,101740.06
2023-05-06T11:17:11.089Z,101740.94
2023-05-06T11:19:41.209Z,101740.47
2023-05-06T11:22:10.588Z,101742.50
2023-05-06T11:24:41.839Z,101675.50
2023-05-06T11:27:19.565Z,101735.81
2023-05-06T11:29:47.838Z,101732.88
2023-05-06T11:32:24.373Z,101734.03
2023-05-06T11:34:57.585Z,101710.66
2023-05-06T11:37:27.475Z,101713.44
2023-05-06T11:39:56.342Z,101736.00
2023-05-06T11:42:29.751Z,101724.19
2023-05-06T11:45:04.814Z,101731.34
2023-05-06T11:47:33.146Z,101736.13
2023-05-06T11:50:07.823Z,101736.66
2023-05-06T11:52:37.249Z,101731.56
2023-05-06T11:55:11.166Z,101732.31
2023-05-06T11:57:48.347Z,101716.66
2023-05-06T12:00:18.789Z,101733.50
2023-05-06T12:02:47.379Z,101731.22
2023-05-06T12:05:17.297Z,101733.88
2023-05-06T12:07:46.588Z,101713.84
2023-05-06T12:10:19.886Z,101732.69
2023-05-06T12:12:51.681Z,101737.13
2023-05-06T12:15:20.128Z,101733.28
2023-05-06T12:17:49.111Z,101704.50
2023-05-06T12:20:20.060Z,101720.09
2023-05-06T12:23:05.714Z,101718.28
2023-05-06T12:25:34.328Z,101731.81
2023-05-06T12:28:03.100Z,101734.50
2023-05-06T12:30:32.090Z,101733.50
2023-05-06T12:33:03.806Z,101728.19
2023-05-06T12:35:34.032Z,101721.50
2023-05-06T12:38:14.446Z,101729.44
2023-05-06T12:40:44.762Z,101732.81
2023-05-06T12:43:13.660Z,101706.28
2023-05-06T12:45:42.189Z,101722.00
2023-05-06T12:48:17.717Z,101728.31
2023-05-06T12:50:47.991Z,101719.31
2023-05-06T12:53:32.482Z,101727.03
2023-05-06T12:56:01.600Z,101718.13
2023-05-06T12:58:29.755Z,101738.41
2023-05-06T13:00:58.187Z,101730.69
2023-05-06T13:03:27.342Z,101725.53
2023-05-06T13:05:57.313Z,101731.25
2023-05-06T13:08:25.773Z,101712.38
2023-05-06T13:10:54.000Z,101703.28
2023-05-06T13:13:22.237Z,101727.84
2023-05-06T13:15:50.602Z,101730.88
2023-05-06T13:18:19.186Z,101728.88
2023-05-06T13:20:47.409Z,101731.81
2023-05-06T13:23:19.410Z,101699.03
2023-05-06T13:26:02.795Z,101709.78
2023-05-06T13:28:35.584Z,101717.94
2023-05-06T13:31:04.024Z,101724.34
2023-05-06T13:33:32.570Z,101715.06
2023-05-06T13:36:02.705Z,101718.94
2023-05-06T13:38:33.617Z,101720.47
2023-05-06T13:41:03.370Z,101705.75
2023-05-06T13:43:31.612Z,101682.38
2023-05-06T13:45:59.939Z,101677.81
2023-05-06T13:48:28.323Z,101698.16
2023-05-06T13:50:57.732Z,101697.41
2023-05-06T13:53:26.067Z,101703.19
2023-05-06T13:55:55.822Z,101684.63
2023-05-06T13:58:24.681Z,101703.75
2023-05-06T14:00:53.214Z,101694.78
2023-05-06T14:03:21.674Z,101696.34
2023-05-06T14:05:49.968Z,101691.84
2023-05-06T14:08:18.439Z,101694.28
2023-05-06T14:10:47.063Z,101695.47
2023-05-06T14:13:17.079Z,101695.00
2023-05-06T14:15:45.463Z,101677.00
2023-05-06T14:18:13.987Z,101669.94
2023-05-06T14:20:42.402Z,101666.31
2023-05-06T14:23:12.341Z,101686.72
2023-05-06T14:25:40.544Z,101681.66
2023-05-06T14:28:10.443Z,101676.31
2023-05-06T14:30:40.165Z,101679.09
2023-05-06T14:33:12.172Z,101674.09
2023-05-06T14:35:42.655Z,101640.31
2023-05-06T14:38:11.988Z,101606.81
2023-05-06T14:40:40.385Z,101672.94
2023-05-06T14:43:11.790Z,101664.44
2023-05-06T14:45:41.457Z,101667.38
2023-05-06T14:48:10.391Z,101668.34
2023-05-06T14:50:38.730Z,101644.00
2023-05-06T14:53:07.404Z,101636.47
2023-05-06T14:55:36.366Z,101655.97
2023-05-06T14:58:04.804Z,101666.06
2023-05-06T15:00:33.301Z,101658.63
2023-05-06T15:03:04.584Z,101646.03
2023-05-06T15:05:32.942Z,101640.59
2023-05-06T15:08:01.417Z,101654.94
2023-05-06T15:10:29.755Z,101663.84
2023-05-06T15:12:59.092Z,101658.75
2023-05-06T15:15:27.593Z,101651.59
2023-05-06T15:17:55.905Z,101637.13
2023-05-06T15:20:26.322Z,101607.06
2023-05-06T15:22:56.403Z,101655.50
2023-05-06T15:25:34.920Z,101662.66
2023-05-06T15:28:06.291Z,101635.22
2023-05-06T15:30:34.629Z,101645.19
2023-05-06T15:33:03.314Z,101654.53
2023-05-06T15:35:33.518Z,101638.66
2023-05-06T15:38:04.075Z,101639.59
2023-05-06T15:40:32.492Z,101641.28
2023-05-06T15:43:00.836Z,101639.28
2023-05-06T15:45:29.459Z,101647.13
2023-05-06T15:47:57.891Z,101677.97
2023-05-06T15:53:02.357Z,101691.09
2023-05-06T15:55:41.453Z,101672.19
2023-05-06T15:58:13.645Z,101715.66
2023-05-06T16:00:42.118Z,101731.56
2023-05-06T16:03:13.569Z,101743.03
2023-05-06T16:05:41.966Z,101742.81
2023-05-06T16:08:14.196Z,101722.81
2023-05-06T16:10:42.661Z,101754.59
2023-05-06T16:13:11.452Z,101751.22
2023-05-06T16:15:39.808Z,101753.19
2023-05-06T16:18:08.548Z,101747.47
2023-05-06T16:20:36.811Z,101758.41
2023-05-06T16:23:06.896Z,101752.09
2023-05-06T16:25:38.306Z,101723.56
2023-05-06T16:28:07.704Z,101756.53
2023-05-06T16:30:36.143Z,101755.97
2023-05-06T16:33:05.301Z,101752.28
2023-05-06T16:35:36.346Z,101748.34
2023-05-06T16:38:04.866Z,101715.94
2023-05-06T16:40:33.316Z,101751.50
2023-05-06T16:43:03.371Z,101753.75
2023-05-06T16:45:33.910Z,101721.94
2023-05-06T16:48:02.415Z,101746.50
2023-05-06T16:50:31.667Z,101742.75
2023-05-06T16:52:59.952Z,101733.56
2023-05-06T16:55:29.613Z,101735.34
2023-05-06T16:58:00.861Z,101748.75
2023-05-06T17:00:31.369Z,101694.84
2023-05-06T17:02:59.922Z,101737.06
2023-05-06T17:05:30.936Z,101724.50
2023-05-06T17:07:59.289Z,101742.53
2023-05-06T17:10:29.375Z,101732.69
2023-05-06T17:12:57.980Z,101707.72
2023-05-06T17:15:26.696Z,101711.84
2023-05-06T17:17:57.758Z,101735.75
2023-05-06T17:20:26.087Z,101731.78
2023-05-06T17:22:54.374Z,101705.53
2023-05-06T17:25:24.344Z,101730.41
2023-05-06T17:27:53.867Z,101711.59
2023-05-06T17:30:22.704Z,101693.72
2023-05-06T17:32:51.097Z,101730.09
2023-05-06T17:35:21.285Z,101729.53
2023-05-06T17:37:49.746Z,101735.75
2023-05-06T17:40:18.482Z,101713.84
2023-05-06T17:42:46.722Z,101737.44
2023-05-06T17:45:15.225Z,101732.69
2023-05-06T17:47:43.740Z,101723.28
2023-05-06T17:50:13.517Z,101730.28
2023-05-06T17:52:43.051Z,101696.22
2023-05-06T17:55:16.845Z,101729.06
2023-05-06T17:57:47.548Z,101687.44
2023-05-06T18:00:17.796Z,101714.16
2023-05-06T18:02:46.517Z,101697.09
2023-05-06T18:05:15.566Z,101728.03
2023-05-06T18:07:45.563Z,101702.69
2023-05-06T18:10:14.399Z,101697.38
2023-05-06T18:12:45.417Z,101713.06
2023-05-06T18:15:13.837Z,101727.38
2023-05-06T18:17:42.167Z,101722.72
2023-05-06T18:20:13.715Z,101703.47
2023-05-06T18:22:46.432Z,101704.84
2023-05-06T18:25:19.679Z,101725.50
2023-05-06T18:27:48.255Z,101721.50
2023-05-06T18:30:17.101Z,101724.38
2023-05-06T18:32:45.309Z,101731.53
2023-05-06T18:35:13.715Z,101737.59
2023-05-06T18:37:41.961Z,101702.28
2023-05-06T18:40:15.793Z,101730.63
2023-05-06T18:42:43.965Z,101721.66
2023-05-06T18:45:13.258Z,101721.84
2023-05-06T18:47:41.684Z,101727.72
2023-05-06T18:50:11.049Z,101729.22
2023-05-06T18:52:39.281Z,101712.34
2023-05-06T18:55:09.071Z,101731.34
2023-05-06T18:57:39.684Z,101730.19
2023-05-06T19:00:11.113Z,101723.72
2023-05-06T19:02:39.463Z,101734.31
2023-05-06T19:05:09.974Z,101736.38
2023-05-06T19:07:38.375Z,101739.22
2023-05-06T19:10:08.773Z,101714.91
2023-05-06T19:12:38.465Z,101744.31
2023-05-06T19:15:09.070Z,101745.34
2023-05-06T19:17:37.420Z,101739.84
2023-05-06T19:20:10.979Z,101738.69
2023-05-06T19:22:39.571Z,101732.41
2023-05-06T19:25:10.196Z,101707.06
2023-05-06T19:27:39.920Z,101740.31
2023-05-06T19:30:13.603Z,101737.44
2023-05-06T19:32:42.319Z,101731.38
2023-05-06T19:35:11.804Z,101725.66
2023-05-06T19:37:40.472Z,101730.66
2023-05-06T19:40:11.336Z,101715.41
2023-05-06T19:42:40.952Z,101730.22
2023-05-06T19:45:11.846Z,101725.34
2023-05-06T19:47:40.849Z,101688.78
2023-05-06T19:50:13.783Z,101719.03
2023-05-06T19:52:43.303Z,101730.28
2023-05-06T19:55:12.739Z,101698.06
2023-05-06T19:57:42.645Z,101730.59
2023-05-06T20:00:13.983Z,101699.56
2023-05-06T20:02:42.312Z,101729.06
2023-05-06T20:05:11.391Z,101726.84
2023-05-06T20:07:41.792Z,101740.13
2023-05-06T20:10:13.508Z,101737.44
2023-05-06T20:12:43.267Z,101731.75
2023-05-06T20:15:12.187Z,101741.63
2023-05-06T20:17:40.782Z,101751.22
2023-05-06T20:20:11.671Z,101735.59
2023-05-06T20:22:41.455Z,101739.41
2023-05-06T20:25:14.422Z,101738.75
2023-05-06T20:27:44.838Z,101737.25
2023-05-06T20:30:13.287Z,101674.50
2023-05-06T20:32:42.182Z,101702.34
2023-05-06T20:35:12.248Z,101728.34
2023-05-06T20:37:41.319Z,101741.00
2023-05-06T20:40:11.453Z,101736.13
2023-05-06T20:42:39.716Z,101710.47
2023-05-06T20:45:11.446Z,101733.69
2023-05-06T20:47:40.133Z,101736.28
2023-05-06T20:50:16.684Z,101732.94
2023-05-06T20:52:46.133Z,101737.69
2023-05-06T20:55:15.350Z,101736.03
2023-05-06T20:57:44.181Z,101707.34
2023-05-06T21:00:14.767Z,101727.53
2023-05-06T21:02:43.150Z,101734.13
2023-05-06T21:05:12.347Z,101734.31
2023-05-06T21:07:40.870Z,101737.69
2023-05-06T21:10:11.328Z,101703.13
2023-05-06T21:12:39.808Z,101745.13
2023-05-06T21:15:14.600Z,101723.47
2023-05-06T21:17:44.196Z,101724.63
2023-05-06T21:20:14.098Z,101730.84
2023-05-06T21:22:42.410Z,101752.03
2023-05-06T21:25:13.190Z,101753.69
2023-05-06T21:27:43.506Z,101742.63
2023-05-06T21:30:14.134Z,101739.94
2023-05-06T21:32:42.323Z,101742.63
2023-05-06T21:35:13.754Z,101703.97
2023-05-06T21:37:41.966Z,101735.72
2023-05-06T21:40:13.668Z,101710.50
2023-05-06T21:42:41.868Z,101734.22
2023-05-06T21:45:13.327Z,101739.41
2023-05-06T21:47:42.693Z,101737.72
2023-05-06T21:50:12.515Z,101737.22
2023-05-06T21:52:40.820Z,101732.50
2023-05-06T21:55:10.364Z,101730.66
2023-05-06T21:57:38.832Z,101712.00
2023-05-06T22:00:11.959Z,101724.56
2023-05-06T22:02:42.020Z,101739.53
2023-05-06T22:05:11.384Z,101732.13
2023-05-06T22:07:39.792Z,101732.28
2023-05-06T22:10:12.300Z,101739.19
2023-05-06T22:12:40.718Z,101732.13
2023-05-06T22:15:10.599Z,101723.06
2023-05-06T22:17:45.105Z,101702.56
2023-05-06T22:20:15.150Z,101713.31
2023-05-06T22:22:44.012Z,101719.72
2023-05-06T22:25:12.664Z,101722.75
2023-05-06T22:27:41.215Z,101726.09
2023-05-06T22:30:18.665Z,101725.44
2023-05-06T22:32:48.336Z,101733.00
2023-05-06T22:35:17.137Z,101725.97
2023-05-06T22:37:45.476Z,101722.59
2023-05-06T22:40:18.844Z,101730.84
2023-05-06T22:42:54.739Z,101722.63
2023-05-06T22:45:26.705Z,101723.78
2023-05-06T22:47:56.880Z,101709.00
2023-05-06T22:50:27.007Z,101708.00
2023-05-06T22:52:57.668Z,101713.03
2023-05-06T22:55:27.493Z,101712.88
2023-05-06T22:57:55.825Z,101719.78
2023-05-06T23:00:24.057Z,101716.72
2023-05-06T23:02:52.612Z,101693.88
2023-05-06T23:05:22.419Z,101717.56
2023-05-06T23:07:50.658Z,101712.00
2023-05-06T23:10:18.912Z,101719.75
2023-05-06T23:12:47.133Z,101697.41
2023-05-06T23:15:15.388Z,101726.31
2023-05-06T23:17:43.654Z,101718.94
2023-05-06T23:20:22.388Z,101734.53
2023-05-06T23:22:57.984Z,101718.75
2023-05-06T23:25:26.895Z,101725.97
2023-05-06T23:28:02.334Z,101731.84
2023-05-06T23:30:33.590Z,101733.38
2023-05-06T23:33:02.143Z,101717.59
2023-05-06T23:35:32.254Z,101720.28
2023-05-06T23:38:01.912Z,101737.06
2023-05-06T23:40:35.719Z,101713.22
2023-05-06T23:43:07.152Z,101736.56
2023-05-06T23:45:37.884Z,101728.31
2023-05-06T23:48:07.452Z,101741.41
2023-05-06T23:50:35.830Z,101709.34
2023-05-06T23:53:07.631Z,101697.41
2023-05-06T23:55:36.054Z,101718.41
2023-05-06T23:58:04.157Z,101738.03
